sensor_id;sensor_type;location;lat;lon;timestamp;temperature;humidity
19952;DHT22;10137;49.406;19.484;2023-04-03T00:01:08;2.40;99.90
19952;DHT22;10137;49.406;19.484;2023-04-03T00:03:35;2.40;99.90
19952;DHT22;10137;49.406;19.484;2023-04-03T00:06:03;2.50;99.90
19952;DHT22;10137;49.406;19.484;2023-04-03T00:08:33;2.40;99.90
19952;DHT22;10137;49.406;19.484;2023-04-03T00:11:02;2.40;99.90
19952;DHT22;10137;49.406;19.484;2023-04-03T00:13:30;2.30;99.90
19952;DHT22;10137;49.406;19.484;2023-04-03T00:15:59;2.30;99.90
19952;DHT22;10137;49.406;19.484;2023-04-03T00:18:26;2.20;99.90
19952;DHT22;10137;49.406;19.484;2023-04-03T00:20:53;2.30;99.90
19952;DHT22;10137;49.406;19.484;2023-04-03T00:23:22;2.20;99.90
19952;DHT22;10137;49.406;19.484;2023-04-03T00:25:51;2.20;99.90
19952;DHT22;10137;49.406;19.484;2023-04-03T00:28:20;2.20;99.90
19952;DHT22;10137;49.406;19.484;2023-04-03T00:30:48;2.30;99.90
19952;DHT22;10137;49.406;19.484;2023-04-03T00:33:17;2.30;99.90
19952;DHT22;10137;49.406;19.484;2023-04-03T00:35:48;2.40;99.90
19952;DHT22;10137;49.406;19.484;2023-04-03T00:38:17;2.30;99.90
19952;DHT22;10137;49.406;19.484;2023-04-03T00:40:47;2.20;99.90
19952;DHT22;10137;49.406;19.484;2023-04-03T00:43:19;2.20;99.90
19952;DHT22;10137;49.406;19.484;2023-04-03T00:45:47;2.20;99.90
19952;DHT22;10137;49.406;19.484;2023-04-03T00:48:17;2.30;99.90
19952;DHT22;10137;49.406;19.484;2023-04-03T00:50:45;2.20;99.90
19952;DHT22;10137;49.406;19.484;2023-04-03T00:53:18;2.20;99.90
19952;DHT22;10137;49.406;19.484;2023-04-03T00:55:47;2.20;99.90
19952;DHT22;10137;49.406;19.484;2023-04-03T00:58:18;2.10;99.90
19952;DHT22;10137;49.406;19.484;2023-04-03T01:00:49;2.00;99.90
19952;DHT22;10137;49.406;19.484;2023-04-03T01:03:22;2.00;99.90
19952;DHT22;10137;49.406;19.484;2023-04-03T01:05:51;2.10;99.90
19952;DHT22;10137;49.406;19.484;2023-04-03T01:08:18;2.20;99.90
19952;DHT22;10137;49.406;19.484;2023-04-03T01:10:46;2.20;99.90
19952;DHT22;10137;49.406;19.484;2023-04-03T01:13:26;2.20;99.90
19952;DHT22;10137;49.406;19.484;2023-04-03T01:15:55;2.20;99.90
19952;DHT22;10137;49.406;19.484;2023-04-03T01:18:24;2.10;99.90
19952;DHT22;10137;49.406;19.484;2023-04-03T01:27:03;2.00;99.90
19952;DHT22;10137;49.406;19.484;2023-04-03T01:29:32;2.00;99.90
19952;DHT22;10137;49.406;19.484;2023-04-03T01:32:02;1.90;99.90
19952;DHT22;10137;49.406;19.484;2023-04-03T01:34:30;1.90;99.90
19952;DHT22;10137;49.406;19.484;2023-04-03T01:36:59;1.90;99.90
19952;DHT22;10137;49.406;19.484;2023-04-03T01:39:26;1.90;99.90
19952;DHT22;10137;49.406;19.484;2023-04-03T01:41:55;1.90;99.90
19952;DHT22;10137;49.406;19.484;2023-04-03T01:44:22;2.00;99.90
19952;DHT22;10137;49.406;19.484;2023-04-03T01:46:49;1.90;99.90
19952;DHT22;10137;49.406;19.484;2023-04-03T01:49:17;1.90;99.90
19952;DHT22;10137;49.406;19.484;2023-04-03T01:51:45;2.10;99.90
19952;DHT22;10137;49.406;19.484;2023-04-03T01:54:15;2.10;99.90
19952;DHT22;10137;49.406;19.484;2023-04-03T01:56:43;2.10;99.90
19952;DHT22;10137;49.406;19.484;2023-04-03T01:59:10;2.10;99.90
19952;DHT22;10137;49.406;19.484;2023-04-03T02:01:39;2.10;99.90
19952;DHT22;10137;49.406;19.484;2023-04-03T02:04:07;2.20;99.90
19952;DHT22;10137;49.406;19.484;2023-04-03T02:06:37;2.10;99.90
19952;DHT22;10137;49.406;19.484;2023-04-03T02:09:04;2.00;99.90
19952;DHT22;10137;49.406;19.484;2023-04-03T02:11:32;2.00;99.90
19952;DHT22;10137;49.406;19.484;2023-04-03T02:13:59;2.00;99.90
19952;DHT22;10137;49.406;19.484;2023-04-03T02:16:28;1.90;99.90
19952;DHT22;10137;49.406;19.484;2023-04-03T02:18:56;1.90;99.90
19952;DHT22;10137;49.406;19.484;2023-04-03T02:21:23;1.90;99.90
19952;DHT22;10137;49.406;19.484;2023-04-03T02:23:52;2.00;99.90
19952;DHT22;10137;49.406;19.484;2023-04-03T02:26:20;2.00;99.90
19952;DHT22;10137;49.406;19.484;2023-04-03T02:28:49;2.10;99.90
19952;DHT22;10137;49.406;19.484;2023-04-03T02:31:16;2.10;99.90
19952;DHT22;10137;49.406;19.484;2023-04-03T02:33:44;2.00;99.90
19952;DHT22;10137;49.406;19.484;2023-04-03T02:36:11;1.90;99.90
19952;DHT22;10137;49.406;19.484;2023-04-03T02:38:38;2.00;99.90
19952;DHT22;10137;49.406;19.484;2023-04-03T02:41:10;1.90;99.90
19952;DHT22;10137;49.406;19.484;2023-04-03T02:43:39;1.90;99.90
19952;DHT22;10137;49.406;19.484;2023-04-03T02:46:06;2.00;99.90
19952;DHT22;10137;49.406;19.484;2023-04-03T02:48:33;2.00;99.90
19952;DHT22;10137;49.406;19.484;2023-04-03T02:51:01;1.90;99.90
19952;DHT22;10137;49.406;19.484;2023-04-03T02:53:31;1.70;99.90
19952;DHT22;10137;49.406;19.484;2023-04-03T02:55:59;1.60;99.90
19952;DHT22;10137;49.406;19.484;2023-04-03T02:58:32;1.70;99.90
19952;DHT22;10137;49.406;19.484;2023-04-03T03:00:59;1.80;99.90
19952;DHT22;10137;49.406;19.484;2023-04-03T03:03:27;1.90;99.90
19952;DHT22;10137;49.406;19.484;2023-04-03T03:06:02;1.80;99.90
19952;DHT22;10137;49.406;19.484;2023-04-03T03:08:29;1.80;99.90
19952;DHT22;10137;49.406;19.484;2023-04-03T03:10:56;1.80;99.90
19952;DHT22;10137;49.406;19.484;2023-04-03T03:13:25;1.70;99.90
19952;DHT22;10137;49.406;19.484;2023-04-03T03:15:54;1.60;99.90
19952;DHT22;10137;49.406;19.484;2023-04-03T03:18:23;1.60;99.90
19952;DHT22;10137;49.406;19.484;2023-04-03T03:20:51;1.60;99.90
19952;DHT22;10137;49.406;19.484;2023-04-03T03:23:20;1.60;99.90
19952;DHT22;10137;49.406;19.484;2023-04-03T03:25:49;1.60;99.90
19952;DHT22;10137;49.406;19.484;2023-04-03T03:28:17;1.50;99.90
19952;DHT22;10137;49.406;19.484;2023-04-03T03:30:45;1.50;99.90
19952;DHT22;10137;49.406;19.484;2023-04-03T03:33:15;1.50;99.90
19952;DHT22;10137;49.406;19.484;2023-04-03T03:35:43;1.60;99.90
19952;DHT22;10137;49.406;19.484;2023-04-03T03:38:10;1.50;99.90
19952;DHT22;10137;49.406;19.484;2023-04-03T03:40:38;1.50;99.90
19952;DHT22;10137;49.406;19.484;2023-04-03T03:43:07;1.50;99.90
19952;DHT22;10137;49.406;19.484;2023-04-03T03:45:36;1.50;99.90
19952;DHT22;10137;49.406;19.484;2023-04-03T03:48:05;1.50;99.90
19952;DHT22;10137;49.406;19.484;2023-04-03T03:50:35;1.50;99.90
19952;DHT22;10137;49.406;19.484;2023-04-03T03:53:03;1.50;99.90
19952;DHT22;10137;49.406;19.484;2023-04-03T03:55:32;1.50;99.90
19952;DHT22;10137;49.406;19.484;2023-04-03T03:58:01;1.50;99.90
19952;DHT22;10137;49.406;19.484;2023-04-03T04:00:29;1.50;99.90
19952;DHT22;10137;49.406;19.484;2023-04-03T04:02:57;1.50;99.90
19952;DHT22;10137;49.406;19.484;2023-04-03T04:05:25;1.40;99.90
19952;DHT22;10137;49.406;19.484;2023-04-03T04:07:55;1.50;99.90
19952;DHT22;10137;49.406;19.484;2023-04-03T04:10:24;1.40;99.90
19952;DHT22;10137;49.406;19.484;2023-04-03T04:12:51;1.30;99.90
19952;DHT22;10137;49.406;19.484;2023-04-03T04:15:19;1.30;99.90
19952;DHT22;10137;49.406;19.484;2023-04-03T04:17:53;1.20;99.90
19952;DHT22;10137;49.406;19.484;2023-04-03T04:20:21;1.20;99.90
19952;DHT22;10137;49.406;19.484;2023-04-03T04:22:51;1.20;99.90
19952;DHT22;10137;49.406;19.484;2023-04-03T04:25:21;1.30;99.90
19952;DHT22;10137;49.406;19.484;2023-04-03T04:27:49;1.30;99.90
19952;DHT22;10137;49.406;19.484;2023-04-03T04:30:17;1.20;99.90
19952;DHT22;10137;49.406;19.484;2023-04-03T04:32:46;1.20;99.90
19952;DHT22;10137;49.406;19.484;2023-04-03T04:35:16;1.20;99.90
19952;DHT22;10137;49.406;19.484;2023-04-03T04:37:43;1.20;99.90
19952;DHT22;10137;49.406;19.484;2023-04-03T04:40:11;1.30;99.90
19952;DHT22;10137;49.406;19.484;2023-04-03T04:42:39;1.30;99.90
19952;DHT22;10137;49.406;19.484;2023-04-03T04:45:09;1.30;99.90
19952;DHT22;10137;49.406;19.484;2023-04-03T04:47:37;1.30;99.90
19952;DHT22;10137;49.406;19.484;2023-04-03T04:50:05;1.20;99.90
19952;DHT22;10137;49.406;19.484;2023-04-03T04:52:32;1.30;99.90
19952;DHT22;10137;49.406;19.484;2023-04-03T04:54:59;1.30;99.90
19952;DHT22;10137;49.406;19.484;2023-04-03T04:57:26;1.30;99.90
19952;DHT22;10137;49.406;19.484;2023-04-03T04:59:55;1.30;99.90
19952;DHT22;10137;49.406;19.484;2023-04-03T05:02:22;1.30;99.90
19952;DHT22;10137;49.406;19.484;2023-04-03T05:04:49;1.20;99.90
19952;DHT22;10137;49.406;19.484;2023-04-03T05:07:17;1.30;99.90
19952;DHT22;10137;49.406;19.484;2023-04-03T05:09:44;1.30;99.90
19952;DHT22;10137;49.406;19.484;2023-04-03T05:12:11;1.40;99.90
19952;DHT22;10137;49.406;19.484;2023-04-03T05:14:38;1.30;99.90
19952;DHT22;10137;49.406;19.484;2023-04-03T05:17:08;1.40;99.90
19952;DHT22;10137;49.406;19.484;2023-04-03T05:19:35;1.30;99.90
19952;DHT22;10137;49.406;19.484;2023-04-03T05:22:02;1.30;99.90
19952;DHT22;10137;49.406;19.484;2023-04-03T05:24:29;1.40;99.90
19952;DHT22;10137;49.406;19.484;2023-04-03T05:26:56;1.30;99.90
19952;DHT22;10137;49.406;19.484;2023-04-03T05:29:23;1.30;99.90
19952;DHT22;10137;49.406;19.484;2023-04-03T05:31:50;1.40;99.90
19952;DHT22;10137;49.406;19.484;2023-04-03T05:34:23;1.20;99.90
19952;DHT22;10137;49.406;19.484;2023-04-03T05:36:52;1.30;99.90
19952;DHT22;10137;49.406;19.484;2023-04-03T05:39:21;1.20;99.90
19952;DHT22;10137;49.406;19.484;2023-04-03T05:41:50;1.20;99.90
19952;DHT22;10137;49.406;19.484;2023-04-03T05:44:18;1.20;99.90
19952;DHT22;10137;49.406;19.484;2023-04-03T05:46:47;1.30;99.90
19952;DHT22;10137;49.406;19.484;2023-04-03T05:49:15;1.30;99.90
19952;DHT22;10137;49.406;19.484;2023-04-03T05:51:45;1.30;99.90
19952;DHT22;10137;49.406;19.484;2023-04-03T05:54:17;1.30;99.90
19952;DHT22;10137;49.406;19.484;2023-04-03T05:56:45;1.30;99.90
19952;DHT22;10137;49.406;19.484;2023-04-03T05:59:12;1.40;99.90
19952;DHT22;10137;49.406;19.484;2023-04-03T06:01:39;1.40;99.90
19952;DHT22;10137;49.406;19.484;2023-04-03T06:04:07;1.40;99.90
19952;DHT22;10137;49.406;19.484;2023-04-03T06:06:46;1.40;99.90
19952;DHT22;10137;49.406;19.484;2023-04-03T06:09:14;1.40;99.90
19952;DHT22;10137;49.406;19.484;2023-04-03T06:11:41;1.40;99.90
19952;DHT22;10137;49.406;19.484;2023-04-03T06:14:09;1.40;99.90
19952;DHT22;10137;49.406;19.484;2023-04-03T06:16:36;1.50;99.90
19952;DHT22;10137;49.406;19.484;2023-04-03T06:19:03;1.50;99.90
19952;DHT22;10137;49.406;19.484;2023-04-03T06:21:32;1.40;99.90
19952;DHT22;10137;49.406;19.484;2023-04-03T06:24:00;1.40;99.90
19952;DHT22;10137;49.406;19.484;2023-04-03T06:26:27;1.40;99.90
19952;DHT22;10137;49.406;19.484;2023-04-03T06:28:55;1.40;99.90
19952;DHT22;10137;49.406;19.484;2023-04-03T06:31:22;1.50;99.90
19952;DHT22;10137;49.406;19.484;2023-04-03T06:33:49;1.40;99.90
19952;DHT22;10137;49.406;19.484;2023-04-03T06:36:18;1.40;99.90
19952;DHT22;10137;49.406;19.484;2023-04-03T06:38:47;1.50;99.90
19952;DHT22;10137;49.406;19.484;2023-04-03T06:41:16;1.50;99.90
19952;DHT22;10137;49.406;19.484;2023-04-03T06:43:43;1.60;99.90
19952;DHT22;10137;49.406;19.484;2023-04-03T06:46:13;1.50;99.90
19952;DHT22;10137;49.406;19.484;2023-04-03T06:48:41;1.50;99.90
19952;DHT22;10137;49.406;19.484;2023-04-03T06:51:16;1.50;99.90
19952;DHT22;10137;49.406;19.484;2023-04-03T06:53:44;1.50;99.90
19952;DHT22;10137;49.406;19.484;2023-04-03T06:56:11;1.60;99.90
19952;DHT22;10137;49.406;19.484;2023-04-03T06:58:40;1.50;99.90
19952;DHT22;10137;49.406;19.484;2023-04-03T07:01:08;1.50;99.90
19952;DHT22;10137;49.406;19.484;2023-04-03T07:03:35;1.60;99.90
19952;DHT22;10137;49.406;19.484;2023-04-03T07:06:03;1.40;99.90
19952;DHT22;10137;49.406;19.484;2023-04-03T07:08:31;1.50;99.90
19952;DHT22;10137;49.406;19.484;2023-04-03T07:10:59;1.40;99.90
19952;DHT22;10137;49.406;19.484;2023-04-03T07:13:26;1.40;99.90
19952;DHT22;10137;49.406;19.484;2023-04-03T07:15:54;1.40;99.90
19952;DHT22;10137;49.406;19.484;2023-04-03T07:18:22;1.40;99.90
19952;DHT22;10137;49.406;19.484;2023-04-03T07:20:49;1.50;99.90
19952;DHT22;10137;49.406;19.484;2023-04-03T07:23:16;1.50;99.90
19952;DHT22;10137;49.406;19.484;2023-04-03T07:25:44;1.50;99.90
19952;DHT22;10137;49.406;19.484;2023-04-03T07:28:11;1.50;99.90
19952;DHT22;10137;49.406;19.484;2023-04-03T07:30:43;1.60;99.90
19952;DHT22;10137;49.406;19.484;2023-04-03T07:33:13;1.60;99.90
19952;DHT22;10137;49.406;19.484;2023-04-03T07:35:41;1.60;99.90
19952;DHT22;10137;49.406;19.484;2023-04-03T07:38:09;1.60;99.90
19952;DHT22;10137;49.406;19.484;2023-04-03T07:40:36;1.50;99.90
19952;DHT22;10137;49.406;19.484;2023-04-03T07:43:03;1.60;99.90
19952;DHT22;10137;49.406;19.484;2023-04-03T07:45:31;1.60;99.90
19952;DHT22;10137;49.406;19.484;2023-04-03T07:47:58;1.50;99.90
19952;DHT22;10137;49.406;19.484;2023-04-03T07:50:27;1.60;99.90
19952;DHT22;10137;49.406;19.484;2023-04-03T07:52:55;1.60;99.90
19952;DHT22;10137;49.406;19.484;2023-04-03T07:55:23;1.60;99.90
19952;DHT22;10137;49.406;19.484;2023-04-03T07:57:50;1.50;99.90
19952;DHT22;10137;49.406;19.484;2023-04-03T08:00:18;1.50;99.90
19952;DHT22;10137;49.406;19.484;2023-04-03T08:02:46;1.50;99.90
19952;DHT22;10137;49.406;19.484;2023-04-03T08:05:17;1.50;99.90
19952;DHT22;10137;49.406;19.484;2023-04-03T08:07:45;1.50;99.90
19952;DHT22;10137;49.406;19.484;2023-04-03T08:10:13;1.60;99.90
19952;DHT22;10137;49.406;19.484;2023-04-03T08:12:41;1.50;99.90
19952;DHT22;10137;49.406;19.484;2023-04-03T08:15:09;1.50;99.90
19952;DHT22;10137;49.406;19.484;2023-04-03T08:17:36;1.50;99.90
19952;DHT22;10137;49.406;19.484;2023-04-03T08:20:04;1.60;99.90
19952;DHT22;10137;49.406;19.484;2023-04-03T08:22:33;1.60;99.90
19952;DHT22;10137;49.406;19.484;2023-04-03T08:25:01;1.50;99.90
19952;DHT22;10137;49.406;19.484;2023-04-03T08:27:28;1.40;99.90
19952;DHT22;10137;49.406;19.484;2023-04-03T08:29:56;1.40;99.90
19952;DHT22;10137;49.406;19.484;2023-04-03T08:32:24;1.30;99.90
19952;DHT22;10137;49.406;19.484;2023-04-03T08:34:51;1.20;99.90
19952;DHT22;10137;49.406;19.484;2023-04-03T08:37:18;1.30;99.90
19952;DHT22;10137;49.406;19.484;2023-04-03T08:39:45;1.30;99.90
19952;DHT22;10137;49.406;19.484;2023-04-03T08:42:22;1.30;99.90
19952;DHT22;10137;49.406;19.484;2023-04-03T08:44:59;1.40;99.90
19952;DHT22;10137;49.406;19.484;2023-04-03T08:47:37;1.30;99.90
19952;DHT22;10137;49.406;19.484;2023-04-03T08:50:07;1.50;99.90
19952;DHT22;10137;49.406;19.484;2023-04-03T08:52:40;1.60;99.90
19952;DHT22;10137;49.406;19.484;2023-04-03T08:55:17;1.60;99.90
19952;DHT22;10137;49.406;19.484;2023-04-03T08:57:48;1.60;99.90
19952;DHT22;10137;49.406;19.484;2023-04-03T09:00:19;1.70;99.90
19952;DHT22;10137;49.406;19.484;2023-04-03T09:02:48;1.80;99.90
19952;DHT22;10137;49.406;19.484;2023-04-03T09:05:18;1.70;99.90
19952;DHT22;10137;49.406;19.484;2023-04-03T09:07:49;1.60;99.90
19952;DHT22;10137;49.406;19.484;2023-04-03T09:10:24;1.50;99.90
19952;DHT22;10137;49.406;19.484;2023-04-03T09:13:00;1.40;99.90
19952;DHT22;10137;49.406;19.484;2023-04-03T09:15:28;1.40;99.90
19952;DHT22;10137;49.406;19.484;2023-04-03T09:17:59;1.30;99.90
19952;DHT22;10137;49.406;19.484;2023-04-03T09:20:39;1.40;99.90
19952;DHT22;10137;49.406;19.484;2023-04-03T09:23:20;1.30;99.90
19952;DHT22;10137;49.406;19.484;2023-04-03T09:25:50;1.20;99.90
19952;DHT22;10137;49.406;19.484;2023-04-03T09:28:21;1.30;99.90
19952;DHT22;10137;49.406;19.484;2023-04-03T09:30:48;1.30;99.90
19952;DHT22;10137;49.406;19.484;2023-04-03T09:33:16;1.20;99.90
19952;DHT22;10137;49.406;19.484;2023-04-03T09:35:43;1.30;99.90
19952;DHT22;10137;49.406;19.484;2023-04-03T09:38:19;1.30;99.90
19952;DHT22;10137;49.406;19.484;2023-04-03T09:40:49;1.30;99.90
19952;DHT22;10137;49.406;19.484;2023-04-03T09:43:26;1.40;99.90
19952;DHT22;10137;49.406;19.484;2023-04-03T09:45:56;1.40;99.90
19952;DHT22;10137;49.406;19.484;2023-04-03T09:48:56;1.50;99.90
19952;DHT22;10137;49.406;19.484;2023-04-03T09:51:26;1.50;99.90
19952;DHT22;10137;49.406;19.484;2023-04-03T09:53:56;1.50;99.90
19952;DHT22;10137;49.406;19.484;2023-04-03T09:56:26;1.60;99.90
19952;DHT22;10137;49.406;19.484;2023-04-03T09:59:13;1.70;99.90
19952;DHT22;10137;49.406;19.484;2023-04-03T10:01:55;1.80;99.90
19952;DHT22;10137;49.406;19.484;2023-04-03T10:04:39;2.00;99.90
19952;DHT22;10137;49.406;19.484;2023-04-03T10:07:29;2.30;99.90
19952;DHT22;10137;49.406;19.484;2023-04-03T10:10:03;2.40;99.90
19952;DHT22;10137;49.406;19.484;2023-04-03T10:12:30;2.40;99.90
19952;DHT22;10137;49.406;19.484;2023-04-03T10:14:59;2.40;99.90
19952;DHT22;10137;49.406;19.484;2023-04-03T10:17:38;2.40;99.90
19952;DHT22;10137;49.406;19.484;2023-04-03T10:20:22;2.50;99.90
19952;DHT22;10137;49.406;19.484;2023-04-03T10:23:00;2.50;99.90
19952;DHT22;10137;49.406;19.484;2023-04-03T10:25:32;2.50;99.70
19952;DHT22;10137;49.406;19.484;2023-04-03T10:28:06;2.40;96.60
19952;DHT22;10137;49.406;19.484;2023-04-03T10:30:42;2.50;96.80
19952;DHT22;10137;49.406;19.484;2023-04-03T10:33:23;3.00;96.90
19952;DHT22;10137;49.406;19.484;2023-04-03T10:36:01;2.90;94.50
19952;DHT22;10137;49.406;19.484;2023-04-03T10:38:34;3.00;95.10
19952;DHT22;10137;49.406;19.484;2023-04-03T10:41:07;3.20;95.90
19952;DHT22;10137;49.406;19.484;2023-04-03T10:43:41;3.40;94.80
19952;DHT22;10137;49.406;19.484;2023-04-03T10:46:15;3.30;93.80
19952;DHT22;10137;49.406;19.484;2023-04-03T10:49:04;3.40;94.30
19952;DHT22;10137;49.406;19.484;2023-04-03T10:51:39;3.30;93.80
19952;DHT22;10137;49.406;19.484;2023-04-03T10:54:11;3.40;94.90
19952;DHT22;10137;49.406;19.484;2023-04-03T10:56:41;3.40;94.80
19952;DHT22;10137;49.406;19.484;2023-04-03T10:59:18;3.30;95.40
19952;DHT22;10137;49.406;19.484;2023-04-03T11:01:51;3.20;96.40
19952;DHT22;10137;49.406;19.484;2023-04-03T11:04:19;3.10;96.10
19952;DHT22;10137;49.406;19.484;2023-04-03T11:06:51;3.00;95.90
19952;DHT22;10137;49.406;19.484;2023-04-03T11:09:24;2.90;95.00
19952;DHT22;10137;49.406;19.484;2023-04-03T11:11:56;2.90;95.50
19952;DHT22;10137;49.406;19.484;2023-04-03T11:14:28;2.90;96.40
19952;DHT22;10137;49.406;19.484;2023-04-03T11:17:05;2.80;95.90
19952;DHT22;10137;49.406;19.484;2023-04-03T11:19:41;2.60;95.60
19952;DHT22;10137;49.406;19.484;2023-04-03T11:22:18;2.60;96.90
19952;DHT22;10137;49.406;19.484;2023-04-03T11:24:56;2.60;97.30
19952;DHT22;10137;49.406;19.484;2023-04-03T11:27:25;2.50;96.80
19952;DHT22;10137;49.406;19.484;2023-04-03T11:29:57;2.40;97.10
19952;DHT22;10137;49.406;19.484;2023-04-03T11:32:47;2.30;98.10
19952;DHT22;10137;49.406;19.484;2023-04-03T11:35:19;2.30;99.90
19952;DHT22;10137;49.406;19.484;2023-04-03T11:37:51;2.40;99.90
19952;DHT22;10137;49.406;19.484;2023-04-03T11:40:25;2.30;99.90
19952;DHT22;10137;49.406;19.484;2023-04-03T11:42:55;2.40;99.90
19952;DHT22;10137;49.406;19.484;2023-04-03T11:45:37;2.30;99.90
19952;DHT22;10137;49.406;19.484;2023-04-03T11:48:47;2.40;99.90
19952;DHT22;10137;49.406;19.484;2023-04-03T11:51:42;2.50;99.90
19952;DHT22;10137;49.406;19.484;2023-04-03T11:54:45;2.50;99.90
19952;DHT22;10137;49.406;19.484;2023-04-03T11:58:02;2.50;99.90
19952;DHT22;10137;49.406;19.484;2023-04-03T12:00:53;2.50;99.90
19952;DHT22;10137;49.406;19.484;2023-04-03T12:04:06;2.50;99.90
19952;DHT22;10137;49.406;19.484;2023-04-03T12:06:58;2.40;99.90
19952;DHT22;10137;49.406;19.484;2023-04-03T12:10:14;2.40;99.90
19952;DHT22;10137;49.406;19.484;2023-04-03T12:12:56;2.30;99.90
19952;DHT22;10137;49.406;19.484;2023-04-03T12:15:52;2.30;99.90
19952;DHT22;10137;49.406;19.484;2023-04-03T12:18:59;2.30;99.90
19952;DHT22;10137;49.406;19.484;2023-04-03T12:22:13;2.40;99.90
19952;DHT22;10137;49.406;19.484;2023-04-03T12:24:51;2.40;99.90
19952;DHT22;10137;49.406;19.484;2023-04-03T12:27:48;2.40;99.90
19952;DHT22;10137;49.406;19.484;2023-04-03T12:30:23;2.30;99.90
19952;DHT22;10137;49.406;19.484;2023-04-03T12:33:18;2.40;99.90
19952;DHT22;10137;49.406;19.484;2023-04-03T12:36:02;2.30;99.90
19952;DHT22;10137;49.406;19.484;2023-04-03T12:39:01;2.30;99.90
19952;DHT22;10137;49.406;19.484;2023-04-03T12:41:37;2.30;99.90
19952;DHT22;10137;49.406;19.484;2023-04-03T12:44:22;2.30;99.90
19952;DHT22;10137;49.406;19.484;2023-04-03T12:46:53;2.20;99.90
19952;DHT22;10137;49.406;19.484;2023-04-03T12:49:39;2.20;99.90
19952;DHT22;10137;49.406;19.484;2023-04-03T12:52:20;2.20;99.90
19952;DHT22;10137;49.406;19.484;2023-04-03T12:54:52;2.20;99.90
19952;DHT22;10137;49.406;19.484;2023-04-03T12:57:24;2.40;99.90
19952;DHT22;10137;49.406;19.484;2023-04-03T12:59:55;2.50;99.90
19952;DHT22;10137;49.406;19.484;2023-04-03T13:02:28;2.50;99.90
19952;DHT22;10137;49.406;19.484;2023-04-03T13:04:59;2.50;99.90
19952;DHT22;10137;49.406;19.484;2023-04-03T13:07:32;2.40;99.90
19952;DHT22;10137;49.406;19.484;2023-04-03T13:10:13;2.20;99.90
19952;DHT22;10137;49.406;19.484;2023-04-03T13:12:51;2.10;99.90
19952;DHT22;10137;49.406;19.484;2023-04-03T13:15:22;2.00;99.90
19952;DHT22;10137;49.406;19.484;2023-04-03T13:17:51;1.90;99.90
19952;DHT22;10137;49.406;19.484;2023-04-03T13:20:23;2.00;99.90
19952;DHT22;10137;49.406;19.484;2023-04-03T13:22:57;1.90;99.90
19952;DHT22;10137;49.406;19.484;2023-04-03T13:25:28;1.80;99.90
19952;DHT22;10137;49.406;19.484;2023-04-03T13:27:58;1.80;99.90
19952;DHT22;10137;49.406;19.484;2023-04-03T13:30:30;1.80;99.90
19952;DHT22;10137;49.406;19.484;2023-04-03T13:33:02;1.90;99.90
19952;DHT22;10137;49.406;19.484;2023-04-03T13:35:36;1.90;99.90
19952;DHT22;10137;49.406;19.484;2023-04-03T13:38:21;2.00;99.90
19952;DHT22;10137;49.406;19.484;2023-04-03T13:40:50;1.90;99.90
19952;DHT22;10137;49.406;19.484;2023-04-03T13:43:23;1.90;99.90
19952;DHT22;10137;49.406;19.484;2023-04-03T13:45:58;1.90;99.90
19952;DHT22;10137;49.406;19.484;2023-04-03T13:48:27;1.90;99.90
19952;DHT22;10137;49.406;19.484;2023-04-03T13:51:17;1.80;99.90
19952;DHT22;10137;49.406;19.484;2023-04-03T13:53:54;1.80;99.90
19952;DHT22;10137;49.406;19.484;2023-04-03T13:56:30;1.70;99.90
19952;DHT22;10137;49.406;19.484;2023-04-03T13:59:06;1.70;99.90
19952;DHT22;10137;49.406;19.484;2023-04-03T14:02:10;1.70;99.90
19952;DHT22;10137;49.406;19.484;2023-04-03T14:04:51;1.50;99.90
19952;DHT22;10137;49.406;19.484;2023-04-03T14:07:25;1.50;99.90
19952;DHT22;10137;49.406;19.484;2023-04-03T14:09:55;1.40;99.90
19952;DHT22;10137;49.406;19.484;2023-04-03T14:12:27;1.30;99.90
19952;DHT22;10137;49.406;19.484;2023-04-03T14:14:57;1.30;99.90
19952;DHT22;10137;49.406;19.484;2023-04-03T14:17:26;1.20;99.90
19952;DHT22;10137;49.406;19.484;2023-04-03T14:19:55;1.30;99.90
19952;DHT22;10137;49.406;19.484;2023-04-03T14:22:26;1.40;99.90
19952;DHT22;10137;49.406;19.484;2023-04-03T14:25:00;1.40;99.90
19952;DHT22;10137;49.406;19.484;2023-04-03T14:27:35;1.40;99.90
19952;DHT22;10137;49.406;19.484;2023-04-03T14:30:07;1.40;99.90
19952;DHT22;10137;49.406;19.484;2023-04-03T14:32:36;1.50;99.90
19952;DHT22;10137;49.406;19.484;2023-04-03T14:35:05;1.40;99.20
19952;DHT22;10137;49.406;19.484;2023-04-03T14:37:33;1.30;98.70
19952;DHT22;10137;49.406;19.484;2023-04-03T14:40:07;1.40;99.80
19952;DHT22;10137;49.406;19.484;2023-04-03T14:42:37;1.40;99.10
19952;DHT22;10137;49.406;19.484;2023-04-03T14:45:08;1.20;97.60
19952;DHT22;10137;49.406;19.484;2023-04-03T14:47:42;1.00;97.10
19952;DHT22;10137;49.406;19.484;2023-04-03T14:50:14;1.10;99.70
19952;DHT22;10137;49.406;19.484;2023-04-03T14:52:43;1.20;99.80
19952;DHT22;10137;49.406;19.484;2023-04-03T14:55:25;1.10;99.40
19952;DHT22;10137;49.406;19.484;2023-04-03T14:57:54;1.20;99.90
19952;DHT22;10137;49.406;19.484;2023-04-03T15:00:23;1.10;99.50
19952;DHT22;10137;49.406;19.484;2023-04-03T15:02:51;1.10;98.10
19952;DHT22;10137;49.406;19.484;2023-04-03T15:05:19;1.00;98.90
19952;DHT22;10137;49.406;19.484;2023-04-03T15:07:50;1.00;99.90
19952;DHT22;10137;49.406;19.484;2023-04-03T15:10:23;1.00;99.90
19952;DHT22;10137;49.406;19.484;2023-04-03T15:12:52;1.10;99.90
19952;DHT22;10137;49.406;19.484;2023-04-03T15:15:21;1.10;99.90
19952;DHT22;10137;49.406;19.484;2023-04-03T15:17:52;1.10;99.90
19952;DHT22;10137;49.406;19.484;2023-04-03T15:20:26;1.10;99.90
19952;DHT22;10137;49.406;19.484;2023-04-03T15:22:55;1.20;99.90
19952;DHT22;10137;49.406;19.484;2023-04-03T15:25:26;1.20;99.90
19952;DHT22;10137;49.406;19.484;2023-04-03T15:27:55;1.20;99.90
19952;DHT22;10137;49.406;19.484;2023-04-03T15:30:25;1.20;99.70
19952;DHT22;10137;49.406;19.484;2023-04-03T15:32:54;1.30;98.80
19952;DHT22;10137;49.406;19.484;2023-04-03T15:35:24;1.30;98.80
19952;DHT22;10137;49.406;19.484;2023-04-03T15:37:57;1.30;99.40
19952;DHT22;10137;49.406;19.484;2023-04-03T15:40:32;1.20;99.40
19952;DHT22;10137;49.406;19.484;2023-04-03T15:42:59;1.20;99.80
19952;DHT22;10137;49.406;19.484;2023-04-03T15:45:28;1.10;99.20
19952;DHT22;10137;49.406;19.484;2023-04-03T15:47:56;1.10;99.50
19952;DHT22;10137;49.406;19.484;2023-04-03T15:50:24;1.10;99.80
19952;DHT22;10137;49.406;19.484;2023-04-03T15:52:51;1.10;99.90
19952;DHT22;10137;49.406;19.484;2023-04-03T15:55:21;1.10;99.90
19952;DHT22;10137;49.406;19.484;2023-04-03T15:57:51;1.10;99.90
19952;DHT22;10137;49.406;19.484;2023-04-03T16:00:26;1.00;99.90
19952;DHT22;10137;49.406;19.484;2023-04-03T16:02:55;0.90;99.90
19952;DHT22;10137;49.406;19.484;2023-04-03T16:05:24;0.90;99.90